Weather observations for the past three days for
Eagles Nest Airport
Imperial (Metric)
Date Time (edt) Wind (mph) Vis. (mi.) Weather Sky Cond. Temperature (ºF) Relative Humidity Wind Chill (°F) Heat Index (°F) Pressure Precipitation (in)
Air Dwpt 6 hour altimeter (in) sea level (mb) 1 hr 3 hr 6 hr
Max. Min.
04 15:55 SW 8 G 20 10.00 Fair CLR 71.8 42.6 35% 29.88 0.0
04 15:35 SW 12 G 26 10.00 Fair CLR 70.9 42.4 36% 29.9 0.0
04 15:15 SW 10 G 20 10.00 Fair CLR 68.9 41.9 38% 29.91 0.0
04 14:55 SW 10 G 18 10.00 Fair CLR 68.5 41.4 37% 29.92 0.0
04 14:35 SW 7 G 18 10.00 Fair CLR 68.5 41.2 37% 29.93 0.0
04 14:15 SW 8 10.00 Fair CLR 68.5 41.7 38% 29.93 0.0
04 13:55 SW 8 10.00 Fair CLR 66.9 41.2 67.5 51.6 39% 29.94 0.0
04 13:35 SW 10 G 18 10.00 Fair CLR 65.5 39.9 39% 29.95 0.0
04 13:15 SW 7 G 23 10.00 Fair CLR 64.8 39.4 39% 29.96 0.0
04 12:55 SW 9 10.00 Fair CLR 66.7 40.3 38% 29.96 0.0
04 12:35 SW 8 G 17 10.00 Fair CLR 66.2 39 37% 29.97 0.0
04 12:15 SW 7 10.00 Fair CLR 66 37.6 35% 29.97 0.0
04 11:55 SW 10 G 18 10.00 Fair CLR 66 37.8 35% 29.97 0.0
04 11:35 SW 13 G 22 10.00 Fair CLR 64.4 36.7 36% 29.97 0.0
04 11:15 SW 9 G 17 10.00 Partly Cloudy SCT090 64 36.7 36% 29.98 0.0
04 10:55 SW 9 G 20 10.00 Fair CLR 63.3 36 36% 29.98 0.0
04 10:35 SW 9 G 16 10.00 Fair CLR 63 35.4 36% 29.98 0.0
04 10:15 SW 8 G 20 10.00 Fair CLR 61.7 34.7 37% 29.98 0.0
04 09:55 SW 10 10.00 Fair CLR 61 34.3 37% 29.98 0.0
04 09:35 S 3 10.00 Fair CLR 58.6 33.8 39% 29.98 0.0
04 09:15 S 7 10.00 Fair CLR 57.4 33.1 40% 29.99 0.0
04 08:55 SW 5 10.00 Fair CLR 56.5 34 43% 29.99 0.0
04 08:35 Calm 10.00 Fair CLR 54.7 35.1 48% 29.99 0.0
04 08:15 Calm 10.00 Fair CLR 53.1 36 52% 30 0.0
04 07:55 Calm 10.00 Fair CLR 51.3 36 51.8 48.2 56% 30 0.0
04 07:35 Calm 10.00 Partly Cloudy SCT080 50 35.2 57% 30 0.0
04 07:15 Calm 10.00 Mostly Cloudy BKN080 50.9 33.6 52% 30 0.0
04 06:55 Calm 10.00 Overcast OVC080 51.1 32.9 50% 29.99 0.0
04 06:35 SW 3 10.00 Overcast OVC070 51.6 33.8 51% 29.99 0.0
04 06:15 W 3 10.00 Overcast BKN070 OVC080 51.3 33.4 51% 29.99 0.0
04 05:55 SW 3 10.00 Mostly Cloudy SCT090 BKN120 49.5 33.4 54% 29.99 0.0
04 05:35 SW 5 10.00 Partly Cloudy SCT110 50.4 32.9 51% 29.99 0.0
04 05:15 SW 5 10.00 Overcast SCT090 OVC110 50.5 31.8 49% 29.99 0.0
04 04:55 Calm 10.00 Overcast BKN090 OVC110 50.7 31.6 48% 30 0.0
04 04:35 SW 3 10.00 Overcast OVC090 48.6 32.4 54% 30 0.0
04 04:15 Calm 10.00 Overcast OVC090 48.2 32.9 56% 30 0.0
04 03:55 Calm 10.00 Overcast OVC090 48.7 31.8 52% 30 0.0
04 03:35 Calm 10.00 Overcast OVC100 49.1 30.9 50% 29.99 0.0
04 03:15 SW 5 10.00 Overcast OVC110 49.1 30 48% 48 29.99 0.0
04 02:55 SW 5 10.00 Overcast SCT070 SCT100 OVC120 48.6 31.8 53% 47 30 0.0
04 02:35 Calm 10.00 Overcast SCT070 SCT090 OVC120 48.7 33.1 55% 30 0.0
04 02:15 Calm 10.00 Overcast SCT090 OVC120 49.1 32.5 53% 30 0.0
04 01:55 Calm 10.00 Overcast OVC090 49.8 32 57 49.5 50% 30 0.0
04 01:35 Calm 10.00 Overcast OVC090 50.2 31.1 48% 30.01 0.0
04 01:15 Calm 10.00 Overcast OVC090 51.1 31.1 46% 30.01 0.0
04 00:55 SW 3 10.00 Overcast OVC090 51.4 30.2 44% 30 0.0
04 00:35 SW 3 10.00 Overcast OVC100 52.7 25.9 35% 30 0.0
04 00:15 SW 5 10.00 Overcast OVC100 50.2 29.1 44% 30 0.0
03 23:55 Calm 10.00 Overcast BKN100 OVC120 50 30.2 47% 30 0.0
03 23:35 SW 5 10.00 Overcast OVC110 53.6 24.3 32% 30 0.0
03 23:15 Calm 10.00 Overcast OVC100 50 29.1 45% 30 0.0
03 22:55 S 3 10.00 Overcast OVC110 49.6 28.6 44% 30 0.0
03 22:35 SW 3 10.00 Overcast OVC120 50 28.4 43% 30 0.0
03 22:15 S 3 10.00 Overcast OVC120 50.4 27.5 41% 29.99 0.0
03 21:55 SW 5 10.00 Mostly Cloudy BKN120 50.4 26.2 39% 29.99 0.0
03 21:35 SW 5 10.00 Fair CLR 51.1 25.3 37% 29.98 0.0
03 21:15 SW 3 10.00 Fair CLR 51.8 25.2 36% 29.97 0.0
03 20:55 Calm 10.00 Fair CLR 53.1 24.8 33% 29.97 0.0
03 20:35 SW 3 10.00 Fair CLR 54.5 23.9 31% 29.97 0.0
03 20:15 SW 5 10.00 Fair CLR 55.4 24.1 30% 29.97 0.0
03 19:55 SW 5 10.00 Fair CLR 57.2 23 62.1 55.9 27% 29.96 0.0
03 19:35 SW 6 10.00 Fair CLR 59.2 22.8 25% 29.96 0.0
03 19:15 W 6 10.00 Fair CLR 60.1 20.5 22% 29.96 0.0
03 18:55 SW 7 10.00 Fair CLR 61 20.5 21% 29.96 0.0
03 18:35 SW 7 10.00 Fair CLR 61.7 21.4 21% 29.96 0.0
03 18:15 SW 7 10.00 Fair CLR 61.5 20.8 21% 29.96 0.0
03 17:55 SW 5 10.00 Fair CLR 61.7 21 21% 29.96 0.0
03 17:35 SW 9 10.00 Fair CLR 61.3 20.7 21% 29.96 0.0
03 17:15 SW 7 10.00 Fair CLR 61.5 21.6 21% 29.96 0.0
03 16:55 Calm 10.00 Fair CLR 61 22.1 22% 29.97 0.0
03 16:35 NW 7 10.00 Fair CLR 60.8 19.8 20% 29.97 0.0
03 16:15 W 9 10.00 Fair CLR 61.2 22.8 23% 29.98 0.0
03 15:55 W 7 10.00 Fair CLR 60.6 24.1 25% 29.99 0.0
03 15:15 Calm 10.00 Fair CLR 58.8 23.2 25% 30 0.0
03 14:55 SW 6 10.00 Fair CLR 58.1 22.8 26% 30.01 0.0
03 14:35 W 6 10.00 Fair CLR 57 22.8 27% 30.02 0.0
03 14:15 W 3 10.00 Fair CLR 57.2 25 29% 30.03 0.0
03 13:55 SW 7 10.00 Fair CLR 56.1 24.6 56.5 42.1 30% 30.03 0.0
03 13:35 W 5 10.00 Fair CLR 54.7 24.3 31% 30.03 0.0
03 13:15 W 8 10.00 Partly Cloudy SCT065 54.5 23.2 30% 30.04 0.0
03 12:55 SW 9 10.00 Partly Cloudy SCT065 53.2 25 33% 30.05 0.0
03 12:35 W 6 10.00 Mostly Cloudy BKN065 51.8 24.6 35% 30.06 0.0
03 12:15 SW 7 10.00 Partly Cloudy SCT065 50.7 23.9 35% 30.07 0.0
03 11:55 W 6 10.00 Fair CLR 50.2 22.3 33% 30.07 0.0
03 11:35 N 3 10.00 Partly Cloudy SCT055 48.6 23.4 37% 30.08 0.0
03 11:15 NW 6 10.00 Partly Cloudy SCT055 47.8 22.8 37% 46 30.08 0.0
03 10:55 SW 5 10.00 Partly Cloudy SCT055 47.8 23.9 39% 46 30.08 0.0
03 10:35 NW 6 10.00 Fair CLR 46.8 22.6 39% 44 30.08 0.0
03 10:15 W 6 10.00 Fair CLR 46.6 23.2 40% 44 30.08 0.0
03 09:55 N 5 10.00 Fair CLR 45.3 23 41% 43 30.08 0.0
03 09:35 NW 8 10.00 Partly Cloudy SCT049 44.8 23.9 44% 41 30.07 0.0
03 09:15 NW 6 10.00 Partly Cloudy SCT049 43.3 24.1 47% 40 30.08 0.0
03 08:55 NW 6 10.00 Fair CLR 43.3 22.8 44% 40 30.07 0.0
03 08:35 NW 7 10.00 Fair CLR 43 23.7 47% 39 30.07 0.0
03 08:15 NW 5 10.00 Fair CLR 42.6 25.7 51% 40 30.07 0.0
03 07:55 Calm 10.00 Partly Cloudy SCT050 41.9 25.3 43 38.5 52% 30.06 0.0
03 07:35 Calm 10.00 Mostly Cloudy BKN050 40.1 25.2 55% 30.06 0.0
03 07:15 N 3 10.00 Overcast OVC050 39.9 25 55% 30.05 0.0
03 06:55 Calm 10.00 Mostly Cloudy BKN060 38.7 24.6 57% 30.04 0.0
03 06:35 W 3 10.00 Partly Cloudy SCT060 38.7 23.5 55% 30.01 0.0
03 06:15 W 6 10.00 Mostly Cloudy BKN060 39.6 23.4 52% 36 30 0.0
03 05:55 Calm 10.00 Mostly Cloudy BKN060 40.1 23 51% 29.99 0.0
03 05:35 NW 3 10.00 Partly Cloudy SCT060 40.3 23.2 51% 29.99 0.0
03 05:15 W 6 10.00 Partly Cloudy SCT060 40.3 23 50% 37 29.99 0.0
03 04:55 NW 3 10.00 Partly Cloudy SCT060 41.2 22.6 48% 29.99 0.0
03 04:35 NW 6 10.00 Partly Cloudy SCT070 41.4 23 48% 38 29.98 0.0
03 04:15 NW 7 10.00 Partly Cloudy SCT070 42.1 23.2 47% 38 29.98 0.0
03 03:55 NW 5 10.00 Mostly Cloudy SCT055 BKN070 41.9 25.3 52% 40 29.98 0.0
03 03:35 NW 5 10.00 Overcast OVC055 43 26.4 52% 41 29.97 0.0
03 03:15 NW 7 10.00 Overcast OVC055 42.6 26.6 53% 39 29.97 0.0
03 02:55 NW 5 10.00 Mostly Cloudy BKN065 41.9 26.8 55% 40 29.97 0.0
03 02:35 NW 3 10.00 Fair CLR 41.7 26.4 55% 29.97 0.0
03 02:15 NW 3 10.00 Fair CLR 40.1 27.1 60% 29.97 0.0
03 01:55 Calm 10.00 Fair CLR 40.3 27.1 52.2 40.3 59% 29.97 0.0
03 01:35 Calm 10.00 Fair CLR 41 26.8 57% 29.97 0.0
03 01:15 Calm 10.00 Fair CLR 41.2 27.1 57% 29.96 0.0
03 00:55 Calm 10.00 Partly Cloudy SCT085 43.7 26.1 50% 29.96 0.0
03 00:35 W 3 10.00 Mostly Cloudy BKN085 44.2 26.2 49% 29.96 0.0
03 00:15 Calm 10.00 Mostly Cloudy BKN085 45 25.9 47% 29.97 0.0
02 23:55 Calm 10.00 Mostly Cloudy BKN085 45.7 25.5 45% 29.96 0.0
02 23:35 NW 3 10.00 Overcast OVC085 47.1 24.8 42% 29.96 0.0
02 23:15 NW 6 10.00 Overcast OVC075 48.2 24.3 39% 46 29.95 0.0
02 22:55 Calm 10.00 Overcast OVC075 48.6 24.6 39% 29.96 0.0
02 22:35 NW 3 10.00 Overcast OVC075 49.1 23.9 37% 29.96 0.0
02 22:15 Calm 10.00 Overcast OVC075 49.5 23.7 36% 29.95 0.0
02 21:55 NW 3 10.00 Overcast OVC075 50 23.2 35% 29.95 0.0
02 21:35 W 5 10.00 Overcast OVC075 50.4 23 34% 29.95 0.0
02 21:15 W 5 10.00 Overcast OVC075 50.7 23 34% 29.94 0.0
02 20:55 W 5 10.00 Overcast OVC075 50.9 22.6 33% 29.93 0.0
02 20:35 W 6 10.00 Overcast OVC075 51.3 22.8 33% 29.92 0.0
02 20:15 NW 6 10.00 Overcast OVC075 52 23.4 33% 29.91 0.0
02 19:55 Calm 10.00 Overcast OVC075 52.2 29.3 58.3 52.2 42% 29.9 0.0
02 19:35 N 5 10.00 Overcast OVC075 52.9 29.1 40% 29.89 0.0
02 19:15 N 5 10.00 Overcast OVC075 53.6 29.1 39% 29.89 0.0
02 18:55 N 8 10.00 Overcast SCT075 OVC085 54 28.4 37% 29.88 0.0
02 18:35 N 8 10.00 Overcast OVC075 54.5 28.6 37% 29.88 0.0
02 18:15 N 7 10.00 Overcast OVC075 55 29.8 38% 29.88 0.0
02 17:55 N 8 10.00 Overcast OVC075 55.4 29.5 37% 29.87 0.0
02 17:35 N 7 10.00 Overcast BKN075 OVC090 55.4 30 38% 29.86 0.0
02 17:15 NE 7 10.00 Overcast OVC075 55.8 29.8 37% 29.86 0.0
02 16:55 NE 3 10.00 Overcast OVC080 56.3 29.3 36% 29.86 0.0
02 16:35 NE 7 10.00 Overcast SCT070 OVC080 56.5 28.6 34% 29.86 0.0
02 16:15 Calm 10.00 Overcast BKN070 OVC080 57 28.4 34% 29.86 0.0
02 15:55 Calm 10.00 Overcast OVC070 56.5 27.9 33% 29.87 0.0
02 15:35 N 6 10.00 Overcast OVC070 56.8 29.8 36% 29.88 0.0
02 15:15 N 3 10.00 Overcast OVC075 57.7 29.8 35% 29.88 0.0
02 14:55 N 5 10.00 Mostly Cloudy BKN075 57.6 29.7 35% 29.89 0.0
02 14:35 NW 3 10.00 Mostly Cloudy SCT060 BKN075 56.7 28.8 34% 29.9 0.0
02 14:15 NE 5 10.00 Overcast OVC060 55.8 29.7 37% 29.91 0.0
02 13:35 N 3 10.00 Mostly Cloudy BKN070 54.9 30.6 40% 29.92 0.0
02 13:15 E 7 10.00 Fair CLR 54.7 30.2 39% 29.93 0.0
02 12:55 Calm 10.00 Partly Cloudy SCT050 53.4 28.9 39% 29.94 0.0
02 12:35 E 3 10.00 Partly Cloudy SCT050 53.4 30.2 41% 29.95 0.0
02 12:15 N 7 10.00 Partly Cloudy SCT050 53.1 30.6 42% 29.95 0.0
02 11:55 NE 3 10.00 Partly Cloudy SCT050 52.2 30 43% 29.95 0.0
02 11:35 N 7 10.00 Partly Cloudy SCT050 51.4 30.6 45% 29.95 0.0
02 11:15 N 7 10.00 Partly Cloudy SCT048 51.3 29.7 44% 29.95 0.0
02 10:55 N 5 10.00 Partly Cloudy SCT046 50.4 31.3 48% 29.96 0.0
02 10:35 N 7 10.00 Fair CLR 49.6 30.2 47% 47 29.96 0.0
02 10:15 NW 3 10.00 Fair CLR 48.6 30.9 51% 29.97 0.0
02 09:55 NW 5 10.00 Fair CLR 47.5 30.7 52% 46 29.96 0.0
02 09:35 N 3 10.00 Fair CLR 47.1 31.8 55% 29.95 0.0
02 09:15 N 5 10.00 Fair CLR 46.6 32.2 57% 45 29.96 0.0
02 08:55 N 6 10.00 Fair CLR 45.5 31.8 59% 43 29.96 0.0
02 08:35 N 5 10.00 Fair CLR 45.5 31.8 59% 44 29.95 0.0
02 08:15 N 5 10.00 Fair CLR 45.5 30.9 57% 44 29.94 0.0
02 07:55 N 5 10.00 Fair CLR 45.7 31.1 50.9 44.4 57% 44 29.95 0.0
02 07:35 N 3 10.00 Fair CLR 44.8 30.7 58% 29.95 0.0
02 07:15 Calm 10.00 Fair CLR 44.6 30.9 59% 29.95 0.0
02 06:55 NW 7 10.00 Partly Cloudy SCT075 44.6 30.7 58% 41 29.95 0.0
02 06:35 NW 6 10.00 Partly Cloudy SCT075 45.3 30.7 57% 43 29.95 0.0
02 06:15 NW 7 10.00 Partly Cloudy SCT075 46.2 30.7 55% 43 29.95 0.0
02 05:55 N 7 10.00 Mostly Cloudy BKN075 46.9 32 56% 44 29.95 0.0
02 05:35 Calm 10.00 Mostly Cloudy SCT075 BKN080 48.2 29.8 49% 29.95 0.0
02 05:15 NW 5 10.00 Partly Cloudy SCT075 47.8 32 54% 46 29.94 0.0
02 04:55 Calm 10.00 Mostly Cloudy BKN075 48.2 32.9 56% 29.93 0.0
02 04:35 N 3 10.00 Mostly Cloudy BKN075 48.6 34.2 58% 29.93 0.0
02 04:15 NW 3 10.00 Overcast OVC075 48.7 35.4 60% 29.93 0.0
02 03:55 NW 6 10.00 Overcast OVC075 49.1 35.6 60% 47 29.93 0.0
02 03:35 NW 5 10.00 Overcast SCT065 OVC075 48.9 35.4 60% 48 29.92 0.0
02 03:15 N 3 10.00 Mostly Cloudy BKN065 BKN075 49.3 35.1 58% 29.92 0.0
02 02:55 Calm 10.00 Partly Cloudy SCT055 50 35.1 57% 29.93 0.0
02 02:35 N 6 10.00 Overcast BKN055 OVC085 50.4 35.1 56% 29.93 0.0
02 02:15 Calm 10.00 Overcast SCT055 BKN075 OVC085 50.9 35.2 55% 29.94 0.0
02 01:55 N 3 10.00 Overcast SCT055 OVC085 51.1 35.6 60.3 51.1 56% 29.94 0.0
02 01:35 N 8 10.00 Overcast SCT055 OVC075 51.4 35.2 54% 29.94 0.0
02 01:15 N 8 10.00 Overcast SCT048 BKN055 OVC070 52 35.8 54% 29.94 0.0
02 00:55 N 7 10.00 Overcast SCT048 OVC055 52.7 36.9 55% 29.94 0.0
02 00:35 N 7 10.00 Overcast BKN065 OVC075 53.6 37.8 55% 29.94 0.0
02 00:15 N 7 10.00 Overcast BKN075 OVC085 54.5 38.8 56% 29.93 0.0
01 23:55 N 6 10.00 Overcast OVC090 55.4 38.5 53% 29.92 0.0
01 23:35 N 6 10.00 Overcast SCT055 BKN090 OVC110 55.9 38.1 51% 29.91 0.0
01 23:15 N 5 10.00 Overcast SCT055 BKN070 OVC110 56.1 38.3 51% 29.9 0.0
01 22:55 NW 7 10.00 Overcast SCT070 OVC100 56.5 39 52% 29.9 0.0
01 22:35 W 3 10.00 Overcast SCT070 OVC100 56.5 38.5 51% 29.88 0.0
01 22:15 Calm 10.00 Mostly Cloudy SCT070 BKN100 55.6 38.5 53% 29.88 0.0
01 21:55 Calm 10.00 Mostly Cloudy BKN100 56.7 38.3 50% 29.87 0.0
01 21:35 Calm 10.00 Mostly Cloudy BKN100 57.2 38.3 49% 29.87 0.0
01 21:15 SW 6 10.00 Partly Cloudy SCT100 58.5 37.8 46% 29.86 0.0
01 20:55 S 8 10.00 Partly Cloudy SCT110 59 37.4 45% 29.84 0.0
01 20:35 SW 7 10.00 Partly Cloudy SCT110 59 37.4 45% 29.84 0.0
01 20:15 S 8 10.00 Fair CLR 59.5 36.7 43% 29.83 0.0
01 19:55 S 8 10.00 Fair CLR 60.4 36 66 60.4 40% 29.83 0.0
01 19:35 S 9 10.00 Fair CLR 61.9 36.5 39% 29.83 0.0
01 19:15 S 12 10.00 Fair CLR 62.8 36.5 38% 29.82 0.0
01 18:55 S 9 G 17 10.00 Fair CLR 63.1 35.2 35% 29.82 0.0
01 18:35 S 9 10.00 Fair CLR 63.9 35.4 35% 29.82 0.0
01 18:15 S 12 G 17 10.00 Fair CLR 64.4 35.6 34% 29.82 0.0
01 17:55 S 7 G 20 10.00 Fair CLR 64.4 34.7 33% 29.83 0.0
01 17:35 S 12 G 18 10.00 Partly Cloudy SCT080 65.1 34.2 32% 29.83 0.0
01 17:15 S 12 G 20 10.00 Partly Cloudy SCT080 65.7 34.9 32% 29.83 0.0
01 16:55 SW 10 G 17 10.00 Fair CLR 65.5 34.7 32% 29.83 0.0
01 16:35 S 7 10.00 Fair CLR 64.9 35.1 33% 29.85 0.0
01 16:15 S 8 10.00 Fair CLR 64.4 34.7 33% 29.85 0.0
01 15:55 S 13 G 17 10.00 Fair CLR 63.5 34.7 34% 29.86 0.0
Date Time (edt) Wind (mph) Vis. (mi.) Weather Sky Cond. Air Dwpt Max. Min. Relative Humidity Wind Chill (°F) Heat Index (°F) altimeter (in) sea level (mb) 1 hr 3 hr 6 hr
6 hour
Temperature (ºF) Pressure Precipitation (in)